Time;durP1;ratioP1;P1;durP2;ratioP2;P2;SDS_P1;SDS_P2;PMS_P1;PMS_P2;Temp;Humidity;BMP_temperature;BMP_pressure;BME280_temperature;BME280_humidity;BME280_pressure;Samples;Min_cycle;Max_cycle;Signal;HPM_P1;HPM_P2
2023/11/25 00:01:34;;;;;;;3.43;1.00;;;5.50;95.00;;;;;;10556252;28;20231;-62
2023/11/25 00:06:37;;;;;;;2.10;0.73;;;5.50;95.20;;;;;;10545272;28;20750;-64
2023/11/25 00:11:41;;;;;;;8.13;1.90;;;5.40;94.90;;;;;;10539896;28;20752;-64
2023/11/25 00:16:46;;;;;;;3.60;0.93;;;5.40;95.10;;;;;;10490948;28;20227;-64
2023/11/25 00:21:50;;;;;;;4.33;1.17;;;5.50;95.10;;;;;;10543779;28;20223;-66
2023/11/25 00:26:53;;;;;;;6.37;1.40;;;5.40;95.00;;;;;;10545199;28;20551;-66
2023/11/25 00:31:59;;;;;;;6.40;1.27;;;5.50;95.80;;;;;;10553219;28;20224;-60
2023/11/25 00:37:02;;;;;;;5.43;1.63;;;5.50;95.50;;;;;;10556730;28;20200;-61
2023/11/25 00:42:07;;;;;;;5.53;1.30;;;5.60;95.10;;;;;;10533521;28;20282;-60
2023/11/25 00:47:13;;;;;;;7.03;1.70;;;5.50;94.60;;;;;;10558489;28;20228;-59
2023/11/25 00:52:18;;;;;;;5.67;1.50;;;5.50;94.70;;;;;;10554422;28;20216;-61
2023/11/25 00:57:21;;;;;;;4.07;1.00;;;5.50;94.90;;;;;;10559607;28;20198;-59
2023/11/25 01:02:27;;;;;;;5.30;1.30;;;5.50;95.10;;;;;;10544908;28;20698;-60
2023/11/25 01:07:32;;;;;;;4.70;1.33;;;5.50;94.80;;;;;;10556916;28;20665;-60
2023/11/25 01:12:35;;;;;;;6.40;1.50;;;5.50;95.00;;;;;;10550102;28;20222;-61
2023/11/25 01:17:40;;;;;;;4.83;1.30;;;5.50;94.90;;;;;;10544676;28;20201;-62
2023/11/25 01:22:45;;;;;;;6.37;1.33;;;5.50;95.00;;;;;;10553691;28;20224;-62
2023/11/25 01:27:50;;;;;;;7.80;1.70;;;5.60;94.90;;;;;;10545018;28;20200;-62
2023/11/25 01:32:55;;;;;;;6.97;1.80;;;5.60;95.10;;;;;;10546958;28;20691;-60
2023/11/25 01:37:59;;;;;;;8.77;1.63;;;5.50;95.10;;;;;;10546576;28;20838;-60
2023/11/25 01:43:07;;;;;;;8.53;1.83;;;5.50;94.80;;;;;;10552994;28;20274;-61
2023/11/25 01:48:14;;;;;;;6.80;2.13;;;5.40;95.10;;;;;;10536279;28;20253;-61
2023/11/25 01:53:20;;;;;;;6.33;1.83;;;5.40;95.20;;;;;;10541730;28;20281;-60
2023/11/25 01:58:23;;;;;;;10.63;2.20;;;5.40;95.30;;;;;;10542445;28;20209;-61
2023/11/25 02:03:28;;;;;;;9.13;1.70;;;5.40;95.60;;;;;;10552478;28;20229;-61
2023/11/25 02:08:32;;;;;;;10.07;2.50;;;5.40;95.50;;;;;;10510778;28;20256;-61
2023/11/25 02:13:36;;;;;;;6.27;2.30;;;5.50;95.90;;;;;;10554698;28;20217;-61
2023/11/25 02:18:42;;;;;;;9.97;2.77;;;5.50;95.60;;;;;;10534706;28;20258;-62
2023/11/25 02:23:47;;;;;;;8.83;2.80;;;5.50;95.50;;;;;;10542459;28;20224;-62
2023/11/25 02:28:51;;;;;;;7.90;2.67;;;5.60;95.40;;;;;;10534026;28;20195;-61
2023/11/25 02:33:54;;;;;;;11.90;3.27;;;5.50;95.50;;;;;;10550029;28;20224;-61
2023/11/25 02:39:00;;;;;;;12.20;4.07;;;5.60;95.50;;;;;;10540295;28;20220;-61
2023/11/25 02:44:07;;;;;;;10.73;3.77;;;5.60;95.50;;;;;;10567100;28;20599;-61
2023/11/25 02:49:11;;;;;;;8.27;3.33;;;5.60;95.50;;;;;;10538892;28;20254;-60
2023/11/25 02:54:16;;;;;;;7.97;3.33;;;5.60;95.90;;;;;;10550239;28;20229;-61
2023/11/25 02:59:19;;;;;;;9.33;3.40;;;5.60;95.40;;;;;;10562388;28;20752;-61
2023/11/25 03:04:26;;;;;;;10.50;3.50;;;5.60;95.40;;;;;;10550097;28;20199;-60
2023/11/25 03:09:33;;;;;;;8.77;3.00;;;5.50;95.50;;;;;;10569912;28;20227;-60
2023/11/25 03:14:37;;;;;;;8.07;3.53;;;5.50;95.20;;;;;;10551216;28;20204;-60
2023/11/25 03:19:40;;;;;;;11.40;3.37;;;5.50;95.70;;;;;;10560749;28;20223;-61
2023/11/25 03:24:45;;;;;;;8.80;3.30;;;5.50;95.40;;;;;;10555309;28;20217;-60
2023/11/25 03:29:50;;;;;;;10.63;3.33;;;5.50;95.40;;;;;;10540778;28;20267;-61
2023/11/25 03:34:56;;;;;;;11.30;3.57;;;5.50;95.30;;;;;;10538707;28;20202;-61
2023/11/25 03:40:07;;;;;;;17.10;3.87;;;5.50;95.20;;;;;;10535050;28;20224;-61
2023/11/25 03:45:13;;;;;;;18.73;3.70;;;5.40;95.40;;;;;;10545114;28;20204;-62
2023/11/25 03:50:16;;;;;;;13.57;3.87;;;5.30;95.50;;;;;;10538950;28;20212;-61
2023/11/25 03:55:21;;;;;;;17.73;3.67;;;5.20;95.50;;;;;;10547761;28;20238;-61
2023/11/25 04:00:25;;;;;;;9.20;4.00;;;5.10;95.60;;;;;;10546368;28;20223;-61
2023/11/25 04:05:29;;;;;;;12.37;3.20;;;5.10;95.60;;;;;;10548231;28;20201;-60
2023/11/25 04:10:34;;;;;;;13.93;3.80;;;5.20;95.80;;;;;;10564767;28;20261;-61
2023/11/25 04:15:38;;;;;;;14.20;4.17;;;5.20;95.90;;;;;;10567947;28;20222;-60
2023/11/25 04:20:41;;;;;;;11.87;3.90;;;5.30;96.00;;;;;;10545079;28;20227;-60
2023/11/25 04:25:47;;;;;;;11.63;3.40;;;5.30;96.20;;;;;;10539819;28;20201;-60
2023/11/25 04:30:50;;;;;;;10.33;3.83;;;5.30;96.70;;;;;;10554014;28;20693;-62
2023/11/25 04:35:54;;;;;;;14.30;3.67;;;5.40;95.90;;;;;;10548856;28;20263;-61
2023/11/25 04:40:59;;;;;;;16.13;3.90;;;5.30;96.00;;;;;;10523892;28;20223;-61
2023/11/25 04:46:04;;;;;;;11.07;4.00;;;5.30;96.20;;;;;;10526460;28;20661;-59
2023/11/25 04:51:09;;;;;;;8.53;4.00;;;5.20;95.80;;;;;;10540275;28;20706;-62
2023/11/25 04:56:14;;;;;;;18.27;5.13;;;5.10;95.90;;;;;;10535370;28;20284;-61
2023/11/25 05:01:19;;;;;;;10.80;3.73;;;5.10;96.30;;;;;;10540415;28;20266;-60
2023/11/25 05:06:23;;;;;;;14.93;3.87;;;5.10;96.60;;;;;;10562068;28;20217;-60
2023/11/25 05:11:28;;;;;;;15.33;4.73;;;5.10;96.40;;;;;;10548289;28;20233;-60
2023/11/25 05:16:31;;;;;;;12.43;3.87;;;5.20;96.90;;;;;;10550304;28;20199;-61
2023/11/25 05:21:35;;;;;;;17.30;4.27;;;5.20;97.10;;;;;;10550503;28;20285;-61
2023/11/25 05:26:40;;;;;;;14.07;4.50;;;5.30;96.60;;;;;;10552012;28;20613;-60
2023/11/25 05:31:44;;;;;;;12.30;3.70;;;5.40;96.80;;;;;;10561355;28;20261;-62
2023/11/25 05:36:48;;;;;;;15.70;3.50;;;5.40;96.70;;;;;;10542021;28;20200;-61
2023/11/25 05:41:53;;;;;;;16.60;4.37;;;5.40;96.50;;;;;;10539662;28;20223;-62
2023/11/25 05:46:57;;;;;;;15.70;4.47;;;5.40;96.60;;;;;;10540629;28;20284;-62
2023/11/25 05:52:00;;;;;;;20.53;3.70;;;5.40;96.60;;;;;;10553785;28;20216;-61
2023/11/25 05:57:06;;;;;;;14.87;4.20;;;5.40;96.50;;;;;;10548720;28;20200;-64
2023/11/25 06:02:09;;;;;;;12.07;3.70;;;5.40;96.40;;;;;;10546236;28;20224;-61
2023/11/25 06:07:13;;;;;;;14.20;3.73;;;5.30;96.30;;;;;;10536962;28;20259;-60
2023/11/25 06:12:18;;;;;;;12.83;3.23;;;5.30;96.50;;;;;;10541800;28;20267;-61
2023/11/25 06:17:23;;;;;;;15.73;3.60;;;5.30;96.50;;;;;;10559051;28;20210;-60
2023/11/25 06:22:26;;;;;;;13.67;3.30;;;5.30;96.50;;;;;;10561079;28;20298;-62
2023/11/25 06:27:31;;;;;;;16.20;3.73;;;5.30;96.60;;;;;;10555953;28;20662;-61
2023/11/25 06:32:35;;;;;;;17.17;3.00;;;5.40;96.70;;;;;;10560732;28;20207;-61
2023/11/25 06:37:40;;;;;;;11.40;2.17;;;5.40;96.90;;;;;;10545460;28;20536;-61
2023/11/25 06:42:46;;;;;;;13.60;2.37;;;5.40;96.90;;;;;;10547306;28;20220;-61
2023/11/25 06:47:50;;;;;;;14.63;3.13;;;5.40;96.80;;;;;;10545329;28;20659;-60
2023/11/25 06:52:54;;;;;;;7.50;2.10;;;5.40;96.80;;;;;;10542621;28;20223;-61
2023/11/25 06:57:59;;;;;;;11.33;2.50;;;5.50;97.00;;;;;;10555026;28;20249;-61
2023/11/25 07:03:02;;;;;;;11.60;2.70;;;5.50;97.10;;;;;;10547539;28;20223;-62
2023/11/25 07:08:06;;;;;;;7.23;1.70;;;5.50;96.90;;;;;;10554318;28;20207;-62
2023/11/25 07:13:11;;;;;;;7.40;1.60;;;5.50;97.00;;;;;;10542382;28;20222;-62
2023/11/25 07:18:15;;;;;;;10.03;1.73;;;5.50;97.00;;;;;;10543351;28;20210;-63
2023/11/25 07:23:18;;;;;;;7.70;2.10;;;5.50;97.00;;;;;;10539660;28;20445;-65
2023/11/25 07:28:24;;;;;;;6.20;2.17;;;5.50;97.40;;;;;;10547743;28;20714;-65
2023/11/25 07:33:28;;;;;;;6.87;1.73;;;5.60;97.40;;;;;;10545709;28;20223;-63
2023/11/25 07:38:32;;;;;;;9.90;2.07;;;5.60;97.20;;;;;;10543159;28;20208;-65
2023/11/25 07:43:37;;;;;;;7.23;2.17;;;5.60;97.40;;;;;;10554509;28;20274;-65
2023/11/25 07:48:41;;;;;;;11.27;3.20;;;5.60;97.50;;;;;;10544988;28;20245;-65
2023/11/25 07:53:44;;;;;;;11.60;2.80;;;5.60;97.40;;;;;;10547104;28;20607;-66
2023/11/25 07:58:49;;;;;;;13.80;3.73;;;5.70;97.60;;;;;;10547214;28;20224;-66
2023/11/25 08:03:53;;;;;;;16.57;3.90;;;5.70;97.40;;;;;;10544892;28;20280;-66
2023/11/25 08:08:57;;;;;;;12.83;3.77;;;5.60;97.40;;;;;;10552571;28;20266;-67
2023/11/25 08:14:02;;;;;;;17.30;3.97;;;5.70;97.40;;;;;;10547467;28;20602;-67
2023/11/25 08:19:05;;;;;;;14.00;4.20;;;5.60;97.40;;;;;;10549042;28;20675;-66
2023/11/25 08:24:10;;;;;;;18.30;4.60;;;5.60;97.60;;;;;;10541552;28;20744;-67
2023/11/25 08:29:15;;;;;;;12.37;3.97;;;5.60;97.60;;;;;;10554155;28;20260;-66
2023/11/25 08:34:19;;;;;;;14.47;3.83;;;5.60;97.40;;;;;;10538491;28;20205;-68
2023/11/25 08:39:25;;;;;;;12.70;3.67;;;5.60;97.40;;;;;;10491963;28;20836;-66
2023/11/25 08:44:31;;;;;;;10.63;3.53;;;5.70;97.40;;;;;;10481385;28;20222;-66
2023/11/25 08:49:35;;;;;;;9.90;2.90;;;5.70;97.40;;;;;;10484683;28;20200;-67
2023/11/25 08:54:38;;;;;;;6.13;1.93;;;5.80;97.40;;;;;;10488249;28;20197;-67
2023/11/25 08:59:45;;;;;;;6.00;2.17;;;5.80;97.20;;;;;;10486707;28;20278;-66
2023/11/25 09:04:49;;;;;;;6.30;1.83;;;5.80;97.20;;;;;;10474845;28;20251;-68
2023/11/25 09:10:10;;;;;;;6.03;1.70;;;5.90;97.10;;;;;;10477771;28;20222;-68
2023/11/25 09:15:15;;;;;;;7.63;2.10;;;5.90;97.20;;;;;;10470159;28;20200;-65
2023/11/25 09:20:20;;;;;;;7.10;2.10;;;6.00;97.20;;;;;;10475010;28;20225;-65
2023/11/25 09:25:24;;;;;;;8.93;2.70;;;6.00;97.20;;;;;;10474826;28;20525;-68
2023/11/25 09:30:30;;;;;;;5.00;1.77;;;6.10;97.60;;;;;;10471317;28;20734;-65
2023/11/25 09:35:34;;;;;;;7.43;2.30;;;6.10;97.30;;;;;;10470845;28;20255;-64
2023/11/25 09:40:39;;;;;;;4.03;1.60;;;6.20;97.30;;;;;;10480287;28;20231;-66
2023/11/25 09:45:44;;;;;;;7.53;2.30;;;6.30;97.30;;;;;;10481079;28;20913;-66
2023/11/25 09:50:50;;;;;;;5.07;1.73;;;6.30;97.30;;;;;;10488706;28;20248;-66
2023/11/25 09:56:01;;;;;;;3.97;1.70;;;6.30;97.10;;;;;;10487057;28;21839;-66
2023/11/25 10:01:10;;;;;;;5.87;2.23;;;6.40;97.20;;;;;;10493729;28;20228;-64
2023/11/25 10:06:14;;;;;;;5.30;1.80;;;6.50;97.10;;;;;;10496328;28;20748;-64
2023/11/25 10:11:21;;;;;;;10.73;2.17;;;6.50;97.10;;;;;;10488701;28;20537;-64
2023/11/25 10:16:29;;;;;;;12.53;2.83;;;6.50;97.40;;;;;;10488720;28;20199;-64
2023/11/25 10:21:36;;;;;;;6.27;2.47;;;6.50;97.70;;;;;;10494906;28;20274;-64
2023/11/25 10:26:41;;;;;;;9.70;2.93;;;6.50;97.90;;;;;;10470288;28;20203;-64
2023/11/25 10:31:46;;;;;;;8.30;2.60;;;6.50;98.20;;;;;;10479399;28;20639;-64
2023/11/25 10:36:49;;;;;;;5.83;2.73;;;6.50;98.30;;;;;;10486184;28;20199;-64
2023/11/25 10:41:53;;;;;;;10.90;2.30;;;6.60;98.40;;;;;;10487269;28;20241;-64
2023/11/25 10:46:59;;;;;;;7.57;2.33;;;6.60;98.20;;;;;;10487768;28;20201;-64
2023/11/25 10:52:07;;;;;;;6.77;2.43;;;6.70;98.30;;;;;;10495011;28;20217;-64
2023/11/25 10:57:13;;;;;;;9.93;2.10;;;6.80;98.30;;;;;;10491676;28;20200;-64
2023/11/25 11:02:29;;;;;;;9.40;2.03;;;6.90;98.30;;;;;;10494777;28;20218;-64
2023/11/25 11:07:34;;;;;;;8.40;2.27;;;7.00;98.10;;;;;;10493337;28;20214;-69
2023/11/25 11:12:42;;;;;;;5.20;1.80;;;7.10;98.00;;;;;;10495291;28;20218;-63
2023/11/25 11:17:56;;;;;;;7.20;2.67;;;7.30;98.10;;;;;;10490210;28;20263;-62
2023/11/25 11:23:00;;;;;;;5.63;2.20;;;7.30;97.80;;;;;;10486963;28;20681;-60
2023/11/25 11:28:13;;;;;;;6.47;2.67;;;7.30;97.80;;;;;;10486797;28;20221;-63
2023/11/25 11:33:18;;;;;;;6.27;1.90;;;7.40;97.80;;;;;;10486181;28;20756;-64
2023/11/25 11:38:28;;;;;;;5.53;1.87;;;7.40;97.50;;;;;;10483085;28;20233;-64
2023/11/25 11:43:32;;;;;;;5.07;1.70;;;7.40;97.50;;;;;;10483679;28;20254;-64
2023/11/25 11:48:39;;;;;;;6.17;1.70;;;7.50;97.50;;;;;;10473642;28;20202;-65
2023/11/25 11:53:43;;;;;;;6.57;1.30;;;7.50;97.40;;;;;;10480046;28;20223;-64
2023/11/25 11:58:59;;;;;;;5.13;1.83;;;7.60;97.50;;;;;;10491727;28;20653;-65
2023/11/25 12:04:05;;;;;;;10.87;2.00;;;7.60;97.40;;;;;;10481994;28;20750;-65
2023/11/25 12:09:08;;;;;;;7.83;2.27;;;7.60;97.10;;;;;;10477676;28;20261;-66
2023/11/25 12:14:12;;;;;;;6.00;1.87;;;7.60;97.40;;;;;;10467122;28;20219;-66
2023/11/25 12:19:17;;;;;;;11.03;1.83;;;7.50;97.50;;;;;;10495003;28;20197;-66
2023/11/25 12:24:21;;;;;;;5.20;1.53;;;7.50;97.70;;;;;;10485151;28;20600;-65
2023/11/25 12:29:26;;;;;;;5.20;1.50;;;7.60;97.80;;;;;;10486104;28;20210;-64
2023/11/25 12:34:31;;;;;;;6.43;1.53;;;7.50;97.60;;;;;;10488417;28;20579;-64
2023/11/25 12:39:39;;;;;;;3.80;1.27;;;7.50;97.70;;;;;;10488950;28;20261;-65
2023/11/25 12:44:49;;;;;;;1.53;0.80;;;7.50;97.80;;;;;;10486555;28;20223;-68
2023/11/25 12:50:04;;;;;;;3.97;1.57;;;7.50;97.60;;;;;;10488072;28;20258;-64
2023/11/25 12:55:12;;;;;;;5.27;1.23;;;7.50;97.30;;;;;;10492123;28;20228;-65
2023/11/25 13:00:18;;;;;;;6.53;1.87;;;7.50;97.50;;;;;;10484068;28;20230;-64
2023/11/25 13:05:24;;;;;;;6.03;2.10;;;7.50;97.60;;;;;;10487989;28;20222;-62
2023/11/25 13:10:28;;;;;;;7.57;1.87;;;7.50;98.50;;;;;;10483422;28;20215;-62
2023/11/25 13:15:31;;;;;;;7.57;1.90;;;7.60;98.20;;;;;;10483992;28;20218;-62
2023/11/25 13:20:36;;;;;;;7.53;1.93;;;7.60;98.30;;;;;;10483087;28;20215;-63
2023/11/25 13:25:40;;;;;;;5.37;2.17;;;7.60;98.30;;;;;;10485599;28;20233;-65
2023/11/25 13:30:45;;;;;;;6.87;2.10;;;7.70;98.30;;;;;;10489837;28;20249;-64
2023/11/25 13:35:51;;;;;;;5.63;2.20;;;7.80;98.40;;;;;;10484813;28;20686;-65
2023/11/25 13:40:54;;;;;;;7.00;2.83;;;7.90;98.40;;;;;;10485300;28;20230;-64
2023/11/25 13:45:59;;;;;;;8.50;2.40;;;7.80;98.40;;;;;;10484333;28;20226;-63
2023/11/25 13:51:04;;;;;;;7.40;2.30;;;7.80;98.50;;;;;;10480411;28;20276;-64
2023/11/25 13:56:08;;;;;;;7.10;2.27;;;7.80;98.70;;;;;;10489612;28;20649;-64
2023/11/25 14:01:13;;;;;;;8.67;1.43;;;7.80;98.70;;;;;;10486012;28;20221;-68
2023/11/25 14:06:19;;;;;;;9.50;2.20;;;7.80;98.60;;;;;;10488242;28;20218;-64
2023/11/25 14:11:23;;;;;;;7.37;2.20;;;7.80;98.50;;;;;;10486743;28;20222;-64
2023/11/25 14:16:27;;;;;;;5.67;1.63;;;7.80;98.20;;;;;;10490145;28;20206;-63
2023/11/25 14:21:32;;;;;;;7.50;2.30;;;7.90;98.10;;;;;;10487680;28;20271;-64
2023/11/25 14:26:36;;;;;;;6.80;1.63;;;7.90;98.30;;;;;;10449736;28;20218;-63
2023/11/25 14:31:40;;;;;;;9.73;2.40;;;7.90;97.80;;;;;;10473720;28;20222;-62
2023/11/25 14:36:46;;;;;;;9.80;2.07;;;7.90;98.00;;;;;;10496828;28;20542;-63
2023/11/25 14:41:54;;;;;;;7.43;2.00;;;7.90;98.00;;;;;;10472777;28;20627;-64
2023/11/25 14:46:58;;;;;;;9.60;2.10;;;7.90;98.40;;;;;;10487887;28;20664;-65
2023/11/25 14:52:04;;;;;;;7.43;2.00;;;7.90;98.10;;;;;;10498854;28;20222;-62
2023/11/25 14:57:16;;;;;;;7.50;1.97;;;7.80;97.70;;;;;;10473307;28;20542;-66
2023/11/25 15:02:20;;;;;;;7.13;2.10;;;7.80;97.70;;;;;;10476268;28;20234;-68
2023/11/25 15:07:26;;;;;;;11.50;2.20;;;7.80;97.70;;;;;;10478869;28;20222;-63
2023/11/25 15:12:29;;;;;;;9.37;1.50;;;7.70;97.60;;;;;;10488401;28;20281;-66
2023/11/25 15:17:33;;;;;;;11.40;1.87;;;7.60;97.60;;;;;;10487890;28;20225;-68
2023/11/25 15:22:38;;;;;;;9.27;2.30;;;7.60;97.70;;;;;;10489965;28;20239;-67
2023/11/25 15:27:42;;;;;;;6.13;2.13;;;7.50;97.80;;;;;;10476544;28;20222;-67
2023/11/25 15:32:46;;;;;;;13.60;3.10;;;7.50;98.00;;;;;;10486681;28;20221;-65
2023/11/25 15:37:51;;;;;;;10.10;2.20;;;7.50;98.20;;;;;;10486629;28;20206;-63
2023/11/25 15:42:55;;;;;;;6.97;2.40;;;7.50;98.30;;;;;;10485635;28;20218;-67
2023/11/25 15:48:01;;;;;;;7.43;2.00;;;7.50;98.70;;;;;;10463875;22;20231;-68
2023/11/25 15:53:08;;;;;;;3.10;0.83;;;7.50;98.50;;;;;;10429263;28;20251;-68
2023/11/25 15:58:12;;;;;;;1.63;0.70;;;7.40;98.20;;;;;;10424096;28;20196;-68
2023/11/25 16:03:16;;;;;;;2.77;1.07;;;7.30;98.10;;;;;;10374002;28;20223;-68
2023/11/25 16:08:21;;;;;;;2.30;0.90;;;7.20;98.10;;;;;;10400770;28;20247;-68
2023/11/25 16:13:25;;;;;;;1.87;1.10;;;7.20;98.70;;;;;;10411000;28;20227;-73
2023/11/25 16:18:30;;;;;;;3.77;1.47;;;7.30;98.40;;;;;;10470304;28;20739;-69
2023/11/25 16:23:36;;;;;;;3.03;1.60;;;7.30;98.70;;;;;;10468339;28;20215;-67
2023/11/25 16:28:43;;;;;;;2.63;1.23;;;7.20;98.90;;;;;;10461748;28;20218;-67
2023/11/25 16:33:46;;;;;;;1.93;1.17;;;7.10;98.80;;;;;;10470861;28;20223;-66
2023/11/25 16:38:51;;;;;;;3.50;1.47;;;7.10;98.80;;;;;;10459052;28;20215;-64
2023/11/25 16:43:55;;;;;;;3.77;1.50;;;7.10;98.80;;;;;;10466761;28;20222;-64
2023/11/25 16:48:58;;;;;;;3.00;1.70;;;7.00;99.00;;;;;;10460037;28;20251;-63
2023/11/25 16:54:13;;;;;;;2.63;2.00;;;6.90;98.90;;;;;;10453868;28;20223;-61
2023/11/25 16:59:17;;;;;;;4.33;2.50;;;7.00;99.30;;;;;;10474991;28;20572;-60
2023/11/25 17:04:20;;;;;;;3.90;2.03;;;7.00;99.40;;;;;;10461793;28;20202;-64
2023/11/25 17:09:25;;;;;;;3.77;1.97;;;7.10;99.40;;;;;;10421880;28;20210;-58
2023/11/25 17:14:29;;;;;;;5.80;3.20;;;7.10;99.50;;;;;;10445117;28;20199;-61
2023/11/25 17:19:34;;;;;;;4.57;2.60;;;7.10;99.50;;;;;;10455788;28;20206;-60
2023/11/25 17:24:40;;;;;;;6.27;4.00;;;7.10;99.20;;;;;;10493055;28;20206;-61
2023/11/25 17:29:44;;;;;;;5.13;3.57;;;7.10;99.40;;;;;;10493464;28;20290;-60
2023/11/25 17:34:48;;;;;;;6.50;3.33;;;7.10;99.30;;;;;;10493350;28;20195;-60
2023/11/25 17:39:53;;;;;;;5.47;2.57;;;7.10;99.30;;;;;;10463421;28;20227;-61
2023/11/25 17:44:57;;;;;;;6.30;3.17;;;7.20;99.20;;;;;;10452162;28;20268;-61
2023/11/25 17:50:01;;;;;;;4.97;2.50;;;7.20;99.20;;;;;;10452684;28;20235;-63
2023/11/25 17:55:06;;;;;;;3.97;2.40;;;7.10;99.00;;;;;;10486138;28;20194;-61
2023/11/25 18:00:11;;;;;;;5.07;2.73;;;7.10;99.00;;;;;;10446232;28;20288;-61
2023/11/25 18:05:14;;;;;;;7.50;3.77;;;7.10;99.00;;;;;;10495058;28;20218;-62
2023/11/25 18:10:20;;;;;;;9.43;3.03;;;7.10;99.00;;;;;;10462181;28;20253;-58
2023/11/25 18:15:23;;;;;;;7.43;3.50;;;7.00;99.10;;;;;;10469712;28;20198;-66
2023/11/25 18:20:28;;;;;;;7.40;3.77;;;7.00;99.00;;;;;;10497631;28;20245;-60
2023/11/25 18:25:32;;;;;;;6.43;3.30;;;7.00;98.90;;;;;;10453261;28;20224;-60
2023/11/25 18:30:38;;;;;;;8.70;5.10;;;7.00;99.50;;;;;;10465189;28;20219;-61
2023/11/25 18:35:42;;;;;;;9.77;7.53;;;7.00;99.30;;;;;;10477739;28;20203;-61
2023/11/25 18:40:47;;;;;;;10.40;6.00;;;7.10;99.30;;;;;;10466377;28;20683;-60
2023/11/25 18:45:52;;;;;;;5.93;3.33;;;7.10;99.30;;;;;;10494444;28;20222;-61
2023/11/25 18:50:56;;;;;;;8.73;6.00;;;7.00;99.20;;;;;;10480506;28;20235;-61
2023/11/25 18:56:01;;;;;;;10.13;5.10;;;7.00;99.20;;;;;;10460689;28;20226;-60
2023/11/25 19:01:05;;;;;;;7.37;5.73;;;7.00;99.20;;;;;;10472254;28;20214;-62
2023/11/25 19:06:10;;;;;;;5.67;4.00;;;7.00;99.20;;;;;;10461634;28;20223;-60
2023/11/25 19:11:15;;;;;;;5.03;3.17;;;6.90;99.10;;;;;;10457177;28;20231;-59
2023/11/25 19:16:18;;;;;;;5.93;3.10;;;6.90;99.10;;;;;;10456406;28;20244;-60
2023/11/25 19:21:22;;;;;;;5.43;3.83;;;6.90;99.10;;;;;;10456665;28;20230;-61
2023/11/25 19:26:27;;;;;;;6.03;3.77;;;6.90;99.10;;;;;;10456371;28;20223;-62
2023/11/25 19:31:30;;;;;;;8.03;3.80;;;6.90;99.00;;;;;;10455898;28;20226;-61
2023/11/25 19:36:34;;;;;;;5.93;3.73;;;6.90;99.40;;;;;;10462000;28;20252;-59
2023/11/25 19:41:39;;;;;;;5.97;4.00;;;6.80;99.00;;;;;;10472274;28;20226;-60
2023/11/25 19:46:42;;;;;;;7.50;3.90;;;6.80;99.00;;;;;;10496847;28;20221;-59
2023/11/25 19:51:46;;;;;;;6.87;5.20;;;6.80;99.30;;;;;;10496139;28;20292;-60
2023/11/25 19:56:51;;;;;;;8.43;3.80;;;6.80;99.10;;;;;;10496833;28;20199;-61
2023/11/25 20:01:55;;;;;;;7.53;3.90;;;6.80;99.00;;;;;;10473324;28;20280;-60
2023/11/25 20:06:59;;;;;;;9.53;5.20;;;6.80;99.00;;;;;;10447008;28;20219;-58
2023/11/25 20:12:05;;;;;;;5.90;4.00;;;6.90;99.10;;;;;;10455107;28;20235;-62
2023/11/25 20:17:09;;;;;;;8.60;4.00;;;6.80;99.10;;;;;;10453963;28;20203;-59
2023/11/25 20:22:13;;;;;;;5.57;3.57;;;6.80;99.00;;;;;;10473093;28;20225;-61
2023/11/25 20:27:19;;;;;;;7.13;3.40;;;6.80;99.00;;;;;;10463947;28;20223;-60
2023/11/25 20:32:23;;;;;;;5.30;3.53;;;6.80;99.00;;;;;;10472201;28;20222;-60
2023/11/25 20:37:26;;;;;;;5.37;3.10;;;6.80;99.00;;;;;;10468946;28;20275;-59
2023/11/25 20:42:31;;;;;;;4.60;2.90;;;6.80;99.00;;;;;;10410977;28;20822;-63
2023/11/25 20:47:35;;;;;;;10.53;3.60;;;6.80;99.40;;;;;;10471053;28;20214;-64
2023/11/25 20:52:39;;;;;;;5.83;3.53;;;6.80;99.00;;;;;;10488316;28;20259;-62
2023/11/25 20:57:44;;;;;;;8.40;3.33;;;6.80;99.00;;;;;;10473219;28;20211;-64
2023/11/25 21:02:47;;;;;;;5.17;3.10;;;6.80;99.10;;;;;;10469169;28;20268;-64
2023/11/25 21:07:52;;;;;;;7.80;3.10;;;6.90;99.20;;;;;;10475261;28;20214;-62
2023/11/25 21:12:58;;;;;;;6.90;3.53;;;6.90;99.00;;;;;;10461755;28;20234;-62
2023/11/25 21:18:02;;;;;;;10.47;4.27;;;6.90;99.10;;;;;;10445205;28;20248;-63
2023/11/25 21:23:06;;;;;;;6.67;3.87;;;6.90;99.30;;;;;;10451100;28;20218;-63
2023/11/25 21:28:11;;;;;;;5.60;3.43;;;7.00;99.10;;;;;;10449549;28;20245;-64
2023/11/25 21:33:15;;;;;;;5.70;3.60;;;7.00;99.50;;;;;;10448437;28;20265;-63
2023/11/25 21:38:18;;;;;;;7.77;3.47;;;7.00;99.30;;;;;;10453430;28;20202;-63
2023/11/25 21:43:25;;;;;;;6.03;3.60;;;7.00;99.30;;;;;;10457724;28;20223;-62
2023/11/25 21:48:31;;;;;;;6.50;3.97;;;7.00;99.50;;;;;;10460613;28;20273;-64
2023/11/25 21:53:34;;;;;;;6.53;4.37;;;7.00;99.10;;;;;;10469736;28;20225;-63
2023/11/25 21:58:39;;;;;;;9.53;4.23;;;7.00;99.20;;;;;;10458579;28;20202;-63
2023/11/25 22:03:43;;;;;;;6.50;4.47;;;7.00;99.30;;;;;;10457594;28;20896;-67
2023/11/25 22:08:46;;;;;;;7.63;4.23;;;7.00;99.30;;;;;;10450768;28;20774;-67
2023/11/25 22:13:51;;;;;;;7.33;4.87;;;7.00;99.30;;;;;;10440599;28;20222;-68
2023/11/25 22:18:55;;;;;;;7.27;4.80;;;7.00;99.40;;;;;;10443212;28;20237;-68
2023/11/25 22:23:59;;;;;;;6.73;5.17;;;7.00;99.40;;;;;;10417354;28;20949;-67
2023/11/25 22:29:05;;;;;;;6.87;5.90;;;7.00;99.30;;;;;;10449663;28;20280;-66
2023/11/25 22:34:10;;;;;;;7.80;6.17;;;6.90;99.30;;;;;;10434858;28;20231;-66
2023/11/25 22:39:14;;;;;;;9.03;6.33;;;6.90;99.30;;;;;;10442394;28;20655;-66
2023/11/25 22:44:19;;;;;;;9.07;6.83;;;6.90;99.40;;;;;;10445691;28;20228;-66
2023/11/25 22:49:23;;;;;;;10.50;6.97;;;6.90;99.40;;;;;;10453652;28;20229;-67
2023/11/25 22:54:27;;;;;;;12.17;7.53;;;6.80;99.40;;;;;;10465457;28;20252;-66
2023/11/25 22:59:32;;;;;;;11.67;8.20;;;6.80;99.40;;;;;;10448620;28;20233;-66
2023/11/25 23:04:35;;;;;;;12.73;8.23;;;6.80;99.40;;;;;;10442907;28;20225;-65
2023/11/25 23:09:39;;;;;;;13.43;9.10;;;6.90;99.60;;;;;;10453476;28;20223;-67
2023/11/25 23:14:44;;;;;;;12.17;8.67;;;6.90;99.50;;;;;;10442195;28;20200;-66
2023/11/25 23:19:49;;;;;;;11.00;7.50;;;6.80;99.50;;;;;;10449554;28;20219;-66
2023/11/25 23:24:52;;;;;;;10.50;6.90;;;6.80;99.50;;;;;;10443664;28;20682;-66
2023/11/25 23:29:57;;;;;;;11.43;6.27;;;6.80;99.40;;;;;;10428601;28;20427;-66
2023/11/25 23:35:01;;;;;;;17.47;6.70;;;6.80;99.50;;;;;;10440601;28;20215;-66
2023/11/25 23:40:07;;;;;;;8.33;6.00;;;6.90;99.80;;;;;;10449734;28;20272;-68
2023/11/25 23:45:12;;;;;;;11.40;6.23;;;6.90;99.70;;;;;;10443347;28;20249;-68
2023/11/25 23:50:19;;;;;;;9.47;5.87;;;6.90;99.70;;;;;;10445640;28;20297;-68
2023/11/25 23:55:23;;;;;;;11.00;6.20;;;7.00;99.50;;;;;;10448319;28;20270;-67
